Time;durP1;ratioP1;P1;durP2;ratioP2;P2;SDS_P1;SDS_P2;PMS_P1;PMS_P2;Temp;Humidity;BMP_temperature;BMP_pressure;BME280_temperature;BME280_humidity;BME280_pressure;Samples;Min_cycle;Max_cycle;Signal;HPM_P1;HPM_P2
2023/10/14 00:02:23;;;;;;;4.22;2.77;;;;;;;20.26;64.67;99475.45;2263511;76;50725;-73
2023/10/14 00:05:07;;;;;;;3.47;2.77;;;;;;;20.26;64.45;99456.64;2262958;76;22277;-76
2023/10/14 00:08:12;;;;;;;3.30;2.92;;;;;;;20.24;64.83;99464.91;2252335;77;50089;-75
2023/10/14 00:11:13;;;;;;;2.98;2.67;;;;;;;20.25;64.79;99469.79;2299048;76;21756;-76
2023/10/14 00:14:17;;;;;;;3.30;2.80;;;;;;;20.24;64.84;99454.17;2257773;77;50391;-76
2023/10/14 00:17:19;;;;;;;3.65;2.95;;;;;;;20.27;64.82;99447.53;2251831;77;51516;-77
2023/10/14 00:20:21;;;;;;;5.33;3.20;;;;;;;20.26;64.41;99452.09;2301973;77;50180;-77
2023/10/14 00:23:30;;;;;;;3.95;3.00;;;;;;;20.24;64.58;99456.86;2256882;76;50661;-75
2023/10/14 00:26:33;;;;;;;3.15;2.85;;;;;;;20.22;64.45;99463.81;2244674;77;50222;-77
2023/10/14 00:29:36;;;;;;;3.35;2.80;;;;;;;20.22;64.62;99453.07;2241258;77;51473;-77
2023/10/14 00:32:39;;;;;;;3.60;3.00;;;;;;;20.24;64.65;99448.80;2298058;77;50718;-77
2023/10/14 00:35:41;;;;;;;3.37;2.90;;;;;;;20.25;64.47;99441.59;2297165;76;51459;-77
2023/10/14 00:38:45;;;;;;;4.17;3.52;;;;;;;20.23;64.28;99435.89;2250508;76;50277;-77
2023/10/14 00:41:50;;;;;;;3.58;2.92;;;;;;;20.23;64.40;99433.21;2297202;77;51553;-75
2023/10/14 00:44:52;;;;;;;3.12;2.75;;;;;;;20.22;64.35;99432.11;2298046;76;52998;-77
2023/10/14 00:47:54;;;;;;;3.52;2.98;;;;;;;20.21;64.45;99417.83;2253147;77;51505;-77
2023/10/14 00:51:01;;;;;;;3.67;3.30;;;;;;;20.23;64.42;99418.97;2299381;76;51664;-76
2023/10/14 00:54:05;;;;;;;4.00;2.90;;;;;;;20.21;64.30;99405.75;2257424;77;52271;-76
2023/10/14 00:57:20;;;;;;;3.42;2.77;;;;;;;20.22;64.32;99402.03;2299027;76;50296;-76
2023/10/14 01:00:22;;;;;;;3.98;3.10;;;;;;;20.22;64.38;99402.03;2258120;76;22349;-72
2023/10/14 01:03:18;;;;;;;4.45;3.40;;;;;;;20.23;64.31;99405.01;2296170;77;22312;-76
2023/10/14 01:06:22;;;;;;;3.70;3.08;;;;;;;20.23;64.28;99399.64;2253157;76;50293;-74
2023/10/14 01:09:33;;;;;;;3.50;2.92;;;;;;;20.22;64.26;99384.58;2299625;76;22363;-76
2023/10/14 01:12:38;;;;;;;3.80;3.00;;;;;;;20.23;64.19;99390.23;2299356;76;22202;-77
2023/10/14 01:15:33;;;;;;;3.50;2.80;;;;;;;20.23;64.28;99386.20;2276722;76;22274;-77
2023/10/14 01:18:39;;;;;;;3.67;3.10;;;;;;;20.23;64.34;99375.98;2253164;76;51594;-77
2023/10/14 01:21:41;;;;;;;4.35;3.17;;;;;;;20.23;64.41;99377.33;2259823;77;22095;-76
2023/10/14 01:24:43;;;;;;;4.42;3.25;;;;;;;20.23;64.15;99370.09;2278317;76;51483;-76
2023/10/14 01:27:46;;;;;;;3.62;2.98;;;;;;;20.22;64.30;99356.91;2252906;77;51903;-77
2023/10/14 01:31:06;;;;;;;3.65;3.00;;;;;;;20.22;64.17;99337.58;2258666;76;51775;-77
2023/10/14 01:34:07;;;;;;;3.98;2.67;;;;;;;20.24;64.30;99321.21;2296522;77;22195;-76
2023/10/14 01:37:15;;;;;;;3.70;2.87;;;;;;;20.25;64.25;99311.31;2299117;76;50236;-76
2023/10/14 01:43:30;;;;;;;3.80;3.40;;;;;;;20.23;64.11;99294.07;2256125;76;22176;-76
2023/10/14 01:46:30;;;;;;;3.55;3.02;;;;;;;20.22;64.19;99279.02;2278106;77;22833;-76
2023/10/14 01:49:35;;;;;;;3.98;3.00;;;;;;;20.21;64.14;99290.25;2258771;76;51508;-76
2023/10/14 01:52:36;;;;;;;4.75;3.42;;;;;;;20.22;64.14;99291.91;2259384;77;22230;-76
2023/10/14 01:55:42;;;;;;;3.72;3.00;;;;;;;20.23;64.13;99297.57;2299307;76;50179;-75
2023/10/14 01:58:45;;;;;;;3.37;2.77;;;;;;;20.21;63.98;99291.59;2299338;77;50693;-76
2023/10/14 02:01:47;;;;;;;4.33;3.10;;;;;;;20.22;64.09;99280.36;2258447;77;50430;-77
2023/10/14 02:04:56;;;;;;;3.85;3.17;;;;;;;20.21;64.20;99282.20;2257150;77;49892;-77
2023/10/14 02:07:54;;;;;;;3.12;2.80;;;;;;;20.21;64.27;99256.69;2297914;75;22261;-77
2023/10/14 02:10:58;;;;;;;3.52;3.05;;;;;;;20.23;64.14;99247.88;2276392;77;50672;-77
2023/10/14 02:14:07;;;;;;;3.98;3.15;;;;;;;20.21;63.96;99248.63;2251592;77;51599;-77
2023/10/14 02:17:10;;;;;;;3.58;3.10;;;;;;;20.22;63.94;99241.41;2258002;77;22274;-75
2023/10/14 02:20:20;;;;;;;5.25;3.45;;;;;;;20.21;64.22;99224.98;2297320;77;22159;-75
2023/10/14 02:23:16;;;;;;;3.40;2.70;;;;;;;20.21;64.11;99217.73;2246555;77;22293;-76
2023/10/14 02:26:25;;;;;;;4.55;3.35;;;;;;;20.21;63.92;99229.02;2251001;77;50692;-75
2023/10/14 02:29:27;;;;;;;3.95;3.10;;;;;;;20.22;63.85;99213.21;2277080;77;51438;-77
2023/10/14 02:32:30;;;;;;;4.15;3.25;;;;;;;20.21;63.90;99223.11;2231433;77;51115;-77
2023/10/14 02:35:33;;;;;;;3.75;3.00;;;;;;;20.22;63.83;99234.70;2298560;76;50184;-77
2023/10/14 02:38:36;;;;;;;3.12;2.72;;;;;;;20.21;63.85;99234.38;2298946;76;51549;-76
2023/10/14 02:41:40;;;;;;;3.80;2.90;;;;;;;20.22;63.83;99226.64;2233309;76;51708;-77
2023/10/14 02:44:51;;;;;;;3.90;2.92;;;;;;;20.22;63.82;99233.36;2298711;76;51436;-76
2023/10/14 02:47:49;;;;;;;3.55;2.98;;;;;;;20.21;63.83;99223.11;2297650;76;22216;-76
2023/10/14 02:50:51;;;;;;;3.80;3.12;;;;;;;20.22;63.88;99218.05;2253211;77;51611;-74
2023/10/14 02:53:55;;;;;;;3.47;3.00;;;;;;;20.21;63.81;99220.95;2277565;77;50644;-74
2023/10/14 02:56:59;;;;;;;3.47;3.00;;;;;;;20.21;63.78;99217.73;2259445;77;24708;-76
2023/10/14 03:00:02;;;;;;;3.62;3.12;;;;;;;20.21;63.76;99205.66;2278068;77;50261;-76
2023/10/14 03:03:13;;;;;;;3.95;3.00;;;;;;;20.21;63.77;99217.73;2297974;76;52466;-75
2023/10/14 03:06:14;;;;;;;4.03;3.35;;;;;;;20.21;63.87;99208.34;2251047;77;22263;-77
2023/10/14 03:09:18;;;;;;;3.90;3.08;;;;;;;20.22;63.75;99218.05;2276397;77;22232;-76
2023/10/14 03:12:24;;;;;;;3.00;2.70;;;;;;;20.21;63.70;99202.97;2276244;77;51473;-77
2023/10/14 03:15:25;;;;;;;3.60;2.92;;;;;;;20.22;63.74;99197.09;2274223;76;22709;-76
2023/10/14 03:18:39;;;;;;;3.65;3.20;;;;;;;20.22;63.75;99205.97;2276159;77;50699;-73
2023/10/14 03:21:58;;;;;;;3.87;3.08;;;;;;;20.22;63.67;99194.41;2214005;76;51184;-73
2023/10/14 03:24:45;;;;;;;4.28;2.95;;;;;;;20.22;63.65;99196.56;2271577;77;22216;-76
2023/10/14 03:27:47;;;;;;;3.58;2.90;;;;;;;20.22;63.62;99202.47;2297605;76;50659;-75
2023/10/14 03:31:01;;;;;;;3.17;2.55;;;;;;;20.21;63.64;99200.28;2302101;76;50034;-75
2023/10/14 03:34:08;;;;;;;4.62;3.42;;;;;;;20.22;63.65;99196.56;2297824;77;50370;-76
2023/10/14 03:37:21;;;;;;;3.52;3.20;;;;;;;20.21;63.63;99189.54;2251062;77;21783;-74
2023/10/14 03:43:43;;;;;;;3.50;3.15;;;;;;;20.22;63.58;99189.85;2263483;77;23609;-76
2023/10/14 03:46:40;;;;;;;4.70;3.10;;;;;;;20.22;63.59;99182.33;2298348;76;22250;-76
2023/10/14 03:49:40;;;;;;;4.47;3.20;;;;;;;20.22;63.60;99178.30;2275711;77;22276;-77
2023/10/14 03:52:42;;;;;;;5.70;3.20;;;;;;;20.22;63.58;99172.92;2256922;77;49995;-75
2023/10/14 03:55:44;;;;;;;2.95;2.62;;;;;;;20.21;63.58;99172.08;2231579;76;51184;-75
2023/10/14 03:58:46;;;;;;;3.50;2.80;;;;;;;20.21;63.56;99169.92;2256960;77;51569;-76
2023/10/14 04:01:54;;;;;;;3.27;2.70;;;;;;;20.21;63.58;99166.71;2257634;77;50210;-76
2023/10/14 04:05:01;;;;;;;3.10;2.80;;;;;;;20.22;63.56;99153.59;2276486;77;22297;-75
2023/10/14 04:07:57;;;;;;;3.65;3.00;;;;;;;20.21;63.57;99154.63;2249866;77;22278;-74
2023/10/14 04:11:15;;;;;;;3.80;3.05;;;;;;;20.21;63.54;99149.78;2231697;77;51689;-76
2023/10/14 04:14:22;;;;;;;4.30;3.00;;;;;;;20.21;63.54;99148.44;2278670;76;51525;-75
2023/10/14 04:17:30;;;;;;;5.67;3.30;;;;;;;20.21;63.56;99150.59;2251056;77;22437;-75
2023/10/14 04:20:33;;;;;;;3.17;2.87;;;;;;;20.22;63.51;99148.22;2297568;76;23408;-75
2023/10/14 04:23:38;;;;;;;4.50;3.00;;;;;;;20.22;63.50;99150.91;2256226;77;22400;-76
2023/10/14 04:26:36;;;;;;;3.80;3.00;;;;;;;20.21;63.54;99145.22;2274745;77;21767;-76
2023/10/14 04:29:39;;;;;;;3.15;2.80;;;;;;;20.21;63.51;99140.38;2251288;77;50321;-76
2023/10/14 04:33:04;;;;;;;3.10;2.52;;;;;;;20.21;63.48;99134.48;2258103;76;51514;-76
2023/10/14 04:39:25;;;;;;;3.92;2.80;;;;;;;20.21;63.49;99123.73;2277666;77;22411;-77
2023/10/14 04:45:30;;;;;;;4.37;2.92;;;;;;;20.21;63.46;99117.55;2276513;76;22118;-77
2023/10/14 04:48:35;;;;;;;3.52;3.00;;;;;;;20.21;63.46;99126.95;2274789;77;22306;-77
2023/10/14 04:51:45;;;;;;;2.77;2.50;;;;;;;20.21;63.46;99121.05;2297515;76;22860;-76
2023/10/14 04:54:37;;;;;;;3.62;3.05;;;;;;;20.21;63.45;99127.77;2247944;77;22309;-76
2023/10/14 04:57:40;;;;;;;3.05;2.72;;;;;;;20.21;63.43;99129.11;2296968;76;51633;-76
2023/10/14 05:00:43;;;;;;;3.67;3.10;;;;;;;20.21;63.44;99122.92;2232143;77;51631;-76
2023/10/14 05:03:46;;;;;;;2.85;2.65;;;;;;;20.20;63.43;99135.55;2257603;77;50730;-77
2023/10/14 05:06:53;;;;;;;3.17;2.87;;;;;;;20.22;63.42;99170.23;2296886;76;50585;-75
2023/10/14 05:10:07;;;;;;;3.85;2.80;;;;;;;20.21;63.43;99217.73;2296821;76;22607;-77
2023/10/14 05:13:09;;;;;;;3.37;3.05;;;;;;;20.23;63.42;99252.44;2297037;76;21895;-77
2023/10/14 05:16:15;;;;;;;4.55;3.12;;;;;;;20.23;63.40;99241.70;2249917;77;21746;-76
2023/10/14 05:19:23;;;;;;;4.65;2.80;;;;;;;20.22;63.38;99249.47;2253960;77;51411;-75
2023/10/14 05:22:24;;;;;;;2.83;2.62;;;;;;;20.22;63.39;99271.77;2221232;77;22604;-77
2023/10/14 05:25:30;;;;;;;;;;;;;;;20.22;63.40;99277.14;2200273;77;51346;-76
2023/10/14 05:28:35;;;;;;;3.22;2.92;;;;;;;20.23;63.33;99292.20;2239850;77;50704;-76
2023/10/14 05:31:36;;;;;;;5.80;3.20;;;;;;;20.22;63.35;99306.69;2238021;77;22226;-73
2023/10/14 05:34:39;;;;;;;3.33;2.87;;;;;;;20.22;63.37;99299.16;2256904;77;51488;-74
2023/10/14 05:37:42;;;;;;;4.37;2.92;;;;;;;20.23;63.38;99310.19;2276253;77;50259;-76
2023/10/14 05:40:44;;;;;;;3.62;2.58;;;;;;;20.25;63.34;99320.72;2251015;77;49632;-76
2023/10/14 05:43:46;;;;;;;3.98;3.08;;;;;;;20.22;63.33;99329.52;2301028;76;51616;-76
2023/10/14 05:46:48;;;;;;;5.47;2.80;;;;;;;20.23;63.33;99343.23;2275667;76;51410;-76
2023/10/14 05:49:52;;;;;;;3.30;2.87;;;;;;;20.23;63.36;99350.47;2275755;76;50651;-76
2023/10/14 05:52:54;;;;;;;4.62;3.27;;;;;;;20.23;63.29;99360.69;2251477;77;22288;-76
2023/10/14 05:56:09;;;;;;;2.92;2.62;;;;;;;20.23;63.30;99360.69;2256576;77;50402;-76
2023/10/14 05:59:06;;;;;;;3.22;2.92;;;;;;;20.23;63.31;99389.42;2296261;77;22338;-76
2023/10/14 06:02:09;;;;;;;3.72;3.25;;;;;;;20.23;63.31;99450.67;2251394;77;50243;-73
2023/10/14 06:05:11;;;;;;;3.15;2.70;;;;;;;20.25;63.31;99475.16;2251102;76;51476;-77
2023/10/14 06:08:20;;;;;;;4.33;3.10;;;;;;;20.23;63.33;99489.62;2256555;77;51190;-77
2023/10/14 06:11:22;;;;;;;3.15;2.85;;;;;;;20.25;63.31;99512.77;2253511;77;51507;-77
2023/10/14 06:14:25;;;;;;;3.20;2.83;;;;;;;20.25;63.29;99535.59;2250623;77;50302;-77
2023/10/14 06:17:27;;;;;;;3.22;2.77;;;;;;;20.25;63.26;99536.41;2251251;77;50305;-74
2023/10/14 06:20:32;;;;;;;4.03;3.10;;;;;;;20.25;63.27;99555.22;2250854;77;50282;-75
2023/10/14 06:23:34;;;;;;;4.08;2.80;;;;;;;20.25;63.27;99558.43;2251284;77;22396;-77
2023/10/14 06:26:36;;;;;;;4.65;2.92;;;;;;;20.25;63.25;99579.92;2275600;77;50236;-75
2023/10/14 06:29:38;;;;;;;3.50;2.60;;;;;;;20.25;63.24;99597.37;2275652;77;50672;-76
2023/10/14 06:32:40;;;;;;;4.15;2.85;;;;;;;20.26;63.19;99602.52;2231705;76;51149;-75
2023/10/14 06:35:42;;;;;;;3.25;2.95;;;;;;;20.24;63.23;99607.28;2276201;76;50586;-75
2023/10/14 06:38:45;;;;;;;3.47;2.90;;;;;;;20.25;63.20;99614.31;2297066;77;50211;-75
2023/10/14 06:41:47;;;;;;;3.12;2.83;;;;;;;20.26;63.19;99629.38;2297493;76;50605;-76
2023/10/14 06:44:51;;;;;;;2.92;2.60;;;;;;;20.25;63.18;99637.14;2275858;77;51459;-74
2023/10/14 06:47:57;;;;;;;3.02;2.70;;;;;;;20.26;63.15;99644.15;2257696;77;24379;-75
2023/10/14 06:50:59;;;;;;;3.25;2.70;;;;;;;20.26;63.15;99636.62;2257465;77;22277;-73
2023/10/14 06:54:01;;;;;;;3.72;3.00;;;;;;;20.25;63.14;99651.10;2257179;77;51492;-76
2023/10/14 06:57:07;;;;;;;3.30;2.52;;;;;;;20.25;63.17;99653.79;2235111;77;52632;-73
2023/10/14 07:00:12;;;;;;;4.03;2.90;;;;;;;20.25;63.13;99666.70;2299485;76;22394;-77
2023/10/14 07:03:16;;;;;;;3.50;2.70;;;;;;;20.27;63.15;99685.26;2277396;77;22242;-75
2023/10/14 07:06:19;;;;;;;2.98;2.70;;;;;;;20.26;63.15;99710.48;2259910;77;50698;-76
2023/10/14 07:09:23;;;;;;;2.98;2.50;;;;;;;20.26;63.14;99713.17;2261604;77;50626;-74
2023/10/14 07:12:25;;;;;;;3.52;2.98;;;;;;;20.25;63.11;99724.45;2266951;77;21689;-76
2023/10/14 07:15:32;;;;;;;5.55;2.62;;;;;;;20.25;63.05;99698.92;2240299;77;51373;-75
2023/10/14 07:18:36;;;;;;;4.15;2.65;;;;;;;20.26;63.09;99698.41;2259872;77;22297;-76
2023/10/14 07:21:36;;;;;;;3.35;2.65;;;;;;;20.25;63.06;99712.36;2241398;78;21938;-75
2023/10/14 07:24:38;;;;;;;3.17;2.72;;;;;;;20.26;63.07;99699.75;2280136;77;50559;-77
2023/10/14 07:27:40;;;;;;;2.42;2.22;;;;;;;20.25;63.07;99706.98;2277692;77;50187;-76
2023/10/14 07:30:51;;;;;;;2.50;2.12;;;;;;;20.26;63.03;99723.39;2277821;77;50339;-77
2023/10/14 07:33:47;;;;;;;3.67;2.70;;;;;;;20.26;63.03;99697.06;2280216;76;22262;-75
2023/10/14 07:36:53;;;;;;;3.50;2.70;;;;;;;20.26;63.05;99743.55;2303516;76;51152;-77
2023/10/14 07:39:56;;;;;;;2.92;2.52;;;;;;;20.27;63.03;99747.89;2298829;76;50699;-76
2023/10/14 07:43:07;;;;;;;3.05;2.40;;;;;;;20.26;63.03;99741.38;2298561;76;50311;-77
2023/10/14 07:46:09;;;;;;;3.17;2.87;;;;;;;20.26;63.04;99748.09;2303470;76;51186;-76
2023/10/14 07:49:11;;;;;;;3.20;2.60;;;;;;;20.25;63.00;99757.20;2278127;77;50316;-76
2023/10/14 07:52:14;;;;;;;3.40;2.80;;;;;;;20.26;62.97;99765.03;2258738;76;50057;-76
2023/10/14 07:55:22;;;;;;;2.98;2.47;;;;;;;20.27;62.96;99754.61;2278134;76;51504;-77
2023/10/14 07:58:31;;;;;;;3.52;2.65;;;;;;;20.27;62.97;99758.64;2277787;76;22344;-76
2023/10/14 08:01:29;;;;;;;2.35;2.15;;;;;;;20.27;62.98;99764.51;2297137;76;23105;-77
2023/10/14 08:04:31;;;;;;;2.55;2.35;;;;;;;20.29;62.93;99778.55;2246941;77;50092;-77
2023/10/14 08:07:46;;;;;;;3.30;2.60;;;;;;;20.31;62.91;99785.88;2276069;77;50300;-77
2023/10/14 08:10:49;;;;;;;3.45;2.80;;;;;;;20.32;62.91;99807.17;2260573;77;22296;-76
2023/10/14 08:13:51;;;;;;;2.77;2.45;;;;;;;20.36;62.84;99822.33;2297275;76;50439;-76
2023/10/14 08:16:53;;;;;;;2.92;2.62;;;;;;;20.35;62.83;99826.07;2297042;76;49900;-76
2023/10/14 08:19:55;;;;;;;3.52;2.62;;;;;;;20.36;62.84;99832.55;2251204;77;50616;-75
2023/10/14 08:22:58;;;;;;;2.90;2.50;;;;;;;20.37;62.79;99837.41;2232737;77;51171;-76
2023/10/14 08:26:02;;;;;;;2.83;2.58;;;;;;;20.37;62.83;99838.75;2301530;76;51686;-77
2023/10/14 08:29:04;;;;;;;2.60;2.27;;;;;;;20.37;62.79;99842.28;2252455;77;25916;-76
2023/10/14 08:32:06;;;;;;;3.33;2.37;;;;;;;20.39;62.73;99843.39;2298194;77;51346;-76
2023/10/14 08:35:17;;;;;;;3.00;2.50;;;;;;;20.39;62.74;99850.93;2190280;77;52931;-77
2023/10/14 08:38:22;;;;;;;4.67;2.70;;;;;;;20.39;62.76;99853.61;2256340;78;51502;-76
2023/10/14 08:41:25;;;;;;;2.73;2.30;;;;;;;20.40;62.74;99863.87;2225037;79;22328;-76
2023/10/14 08:44:31;;;;;;;2.58;2.22;;;;;;;20.38;62.80;99856.53;2255837;77;51647;-75
2023/10/14 08:47:33;;;;;;;4.00;2.20;;;;;;;20.39;62.77;99860.86;2256062;77;51323;-76
2023/10/14 08:50:39;;;;;;;2.40;2.20;;;;;;;20.39;62.73;99872.42;2248888;77;52394;-76
2023/10/14 08:53:43;;;;;;;3.35;2.30;;;;;;;20.41;62.68;99874.91;2225153;79;21855;-76
2023/10/14 08:56:45;;;;;;;4.53;2.27;;;;;;;20.42;62.67;99884.61;2256341;77;50763;-77
2023/10/14 08:59:49;;;;;;;3.08;2.15;;;;;;;20.41;62.60;99887.00;2248518;79;51625;-76
2023/10/14 09:02:53;;;;;;;2.83;2.40;;;;;;;20.42;62.60;99885.45;2292853;76;50728;-76
2023/10/14 09:05:55;;;;;;;2.40;2.20;;;;;;;20.42;62.59;99897.55;2276995;76;50732;-76
2023/10/14 09:08:58;;;;;;;2.55;2.27;;;;;;;20.43;62.59;99903.74;2276552;77;51374;-76
2023/10/14 09:12:11;;;;;;;2.58;2.08;;;;;;;20.42;62.59;99914.16;2251808;77;50778;-76
2023/10/14 09:15:14;;;;;;;3.90;2.45;;;;;;;20.43;62.58;99925.23;2301784;76;51101;-75
2023/10/14 09:18:28;;;;;;;3.02;2.10;;;;;;;20.41;62.59;99930.00;2297416;76;51501;-76
2023/10/14 09:21:28;;;;;;;2.92;2.30;;;;;;;20.41;62.58;99940.74;2296267;77;22242;-76
2023/10/14 09:24:34;;;;;;;3.30;2.05;;;;;;;20.40;62.58;99945.30;2300937;77;51004;-77
2023/10/14 09:27:37;;;;;;;3.25;2.22;;;;;;;20.41;62.58;99948.80;2297427;76;22533;-77
2023/10/14 09:30:46;;;;;;;3.30;2.05;;;;;;;20.40;62.55;99946.64;2257150;77;50264;-77
2023/10/14 09:33:51;;;;;;;1.80;1.70;;;;;;;20.41;62.55;99958.20;2257113;77;22331;-77
2023/10/14 09:36:52;;;;;;;2.58;2.10;;;;;;;20.41;62.53;99963.06;2275284;77;22490;-76
2023/10/14 09:39:57;;;;;;;3.17;2.10;;;;;;;20.41;62.52;99966.27;2277246;77;50300;-76
2023/10/14 09:42:58;;;;;;;2.87;2.25;;;;;;;20.40;62.48;99972.17;2298443;76;22250;-76
2023/10/14 09:46:03;;;;;;;3.67;1.98;;;;;;;20.42;62.43;99974.13;2298132;76;51427;-76
2023/10/14 09:49:10;;;;;;;2.30;2.02;;;;;;;20.41;62.43;99982.39;2297925;77;22278;-74
2023/10/14 09:52:14;;;;;;;2.77;2.05;;;;;;;20.42;62.40;99990.25;2297250;77;22385;-74
2023/10/14 09:55:15;;;;;;;2.92;2.02;;;;;;;20.42;62.39;99988.91;2297565;76;21778;-77
2023/10/14 09:58:18;;;;;;;2.83;2.05;;;;;;;20.42;62.40;99994.78;2301444;77;51661;-75
2023/10/14 10:01:20;;;;;;;2.22;2.02;;;;;;;20.42;62.38;100003.69;2297250;77;50618;-76
2023/10/14 10:04:25;;;;;;;3.17;1.92;;;;;;;20.42;62.35;100009.06;2297588;77;51444;-74
2023/10/14 10:07:30;;;;;;;;;;;;;;;20.42;62.36;100006.87;2298900;76;51834;-77
2023/10/14 10:10:32;;;;;;;2.90;2.00;;;;;;;20.44;62.26;100003.46;2297301;77;50755;-76
2023/10/14 10:13:35;;;;;;;2.95;1.90;;;;;;;20.43;62.29;100012.57;2296489;76;50188;-77
2023/10/14 10:16:37;;;;;;;2.70;2.12;;;;;;;20.44;62.26;100011.52;2233511;77;52516;-76
2023/10/14 10:20:00;;;;;;;2.85;2.08;;;;;;;20.45;62.22;100005.13;2258615;77;50654;-76
2023/10/14 10:23:02;;;;;;;2.83;2.30;;;;;;;20.46;62.19;100018.86;2296691;77;50786;-75
2023/10/14 10:26:04;;;;;;;2.20;2.00;;;;;;;20.45;62.17;100020.73;2226259;76;51036;-77
2023/10/14 10:29:23;;;;;;;2.52;1.82;;;;;;;20.44;62.18;100022.27;2258741;77;50692;-77
2023/10/14 10:32:33;;;;;;;4.90;2.10;;;;;;;20.43;62.20;100015.26;2270696;77;51013;-76
2023/10/14 10:35:36;;;;;;;3.52;2.05;;;;;;;20.43;62.16;100029.52;2297168;76;50121;-77
2023/10/14 10:38:38;;;;;;;2.22;2.00;;;;;;;20.43;62.15;100030.86;2250903;77;50104;-76
2023/10/14 10:41:40;;;;;;;2.37;1.85;;;;;;;20.43;62.11;100041.61;2208727;77;51270;-77
2023/10/14 10:44:43;;;;;;;3.83;2.00;;;;;;;20.43;62.13;100046.98;2250433;77;50588;-77
2023/10/14 10:47:46;;;;;;;2.05;1.80;;;;;;;20.43;62.07;100046.98;2297072;76;49865;-77
2023/10/14 10:50:51;;;;;;;3.42;2.05;;;;;;;20.43;62.09;100048.84;2251060;77;50642;-76
2023/10/14 10:53:53;;;;;;;3.80;1.87;;;;;;;20.43;62.06;100055.56;2276086;77;50712;-75
2023/10/14 10:56:56;;;;;;;2.75;2.00;;;;;;;20.43;62.00;100056.91;2296987;76;51309;-75
2023/10/14 10:59:58;;;;;;;3.40;1.85;;;;;;;20.43;62.04;100052.88;2258536;77;50342;-75
2023/10/14 11:03:01;;;;;;;2.62;1.90;;;;;;;20.43;61.90;100056.39;2296970;76;51419;-75
2023/10/14 11:06:04;;;;;;;3.98;2.17;;;;;;;20.44;61.90;100069.30;2252755;76;51701;-77
2023/10/14 11:09:07;;;;;;;2.27;1.77;;;;;;;20.44;61.90;100061.23;2298912;76;51441;-77
2023/10/14 11:12:14;;;;;;;2.22;1.70;;;;;;;20.44;61.88;100069.30;2298828;76;50239;-76
2023/10/14 11:15:23;;;;;;;2.60;1.85;;;;;;;20.46;61.86;100072.61;2241956;76;50215;-78
2023/10/14 11:18:25;;;;;;;3.58;1.85;;;;;;;20.45;61.83;100084.41;2257227;76;50490;-76
2023/10/14 11:21:31;;;;;;;3.55;1.80;;;;;;;20.47;61.79;100065.37;2265651;77;52077;-78
2023/10/14 11:24:31;;;;;;;2.87;2.02;;;;;;;20.48;61.72;100073.76;2297638;76;22213;-76
2023/10/14 11:27:33;;;;;;;2.55;1.85;;;;;;;20.47;61.72;100073.43;2298537;76;51523;-76
2023/10/14 11:30:45;;;;;;;5.65;2.35;;;;;;;20.47;61.72;100085.00;2252257;77;52166;-76
2023/10/14 11:33:47;;;;;;;3.30;1.95;;;;;;;20.45;61.75;100089.78;2296818;76;50404;-77
2023/10/14 11:36:50;;;;;;;3.22;1.90;;;;;;;20.45;61.78;100088.44;2296672;76;51487;-77
2023/10/14 11:39:53;;;;;;;2.47;2.10;;;;;;;20.43;61.80;100094.01;2296718;76;51376;-76
2023/10/14 11:42:55;;;;;;;4.17;2.17;;;;;;;20.43;61.77;100103.94;2258652;77;50227;-76
2023/10/14 11:45:58;;;;;;;2.77;1.70;;;;;;;20.43;61.75;100103.94;2300903;76;52362;-76
2023/10/14 11:49:00;;;;;;;2.58;1.87;;;;;;;20.42;61.79;100111.67;2275515;77;50284;-76
2023/10/14 11:52:04;;;;;;;4.05;2.20;;;;;;;20.43;61.73;100116.03;2275534;77;50174;-77
2023/10/14 11:55:07;;;;;;;3.37;2.08;;;;;;;20.44;61.68;100112.30;2251194;76;50461;-77
2023/10/14 11:58:09;;;;;;;3.25;1.92;;;;;;;20.45;61.65;100116.13;2275797;77;50381;-77
2023/10/14 12:01:11;;;;;;;2.05;1.75;;;;;;;20.46;61.56;100118.30;2297129;76;50242;-77
2023/10/14 12:04:14;;;;;;;3.02;1.87;;;;;;;20.45;61.55;100113.44;2258968;77;50575;-78
2023/10/14 12:07:17;;;;;;;3.40;2.10;;;;;;;20.45;61.50;100111.28;2251295;77;51502;-76
2023/10/14 12:10:25;;;;;;;5.17;2.08;;;;;;;20.47;61.45;100102.98;2301196;76;52526;-76
2023/10/14 12:13:27;;;;;;;3.62;1.82;;;;;;;20.46;61.42;100112.92;2250695;77;22782;-77
2023/10/14 12:16:27;;;;;;;3.02;2.00;;;;;;;20.49;61.39;100117.05;2258260;77;22397;-77
2023/10/14 12:19:29;;;;;;;2.55;1.85;;;;;;;20.47;61.46;100121.28;2258835;77;49919;-77
2023/10/14 12:22:32;;;;;;;3.72;1.87;;;;;;;20.45;61.51;100123.38;2275687;77;50159;-75
2023/10/14 12:25:34;;;;;;;3.65;2.02;;;;;;;20.43;61.55;100133.50;2296912;76;51491;-76
2023/10/14 12:28:36;;;;;;;3.05;2.10;;;;;;;20.44;61.57;100132.45;2297035;77;50594;-76
2023/10/14 12:31:43;;;;;;;3.55;2.05;;;;;;;20.46;61.46;100141.14;2258997;77;51449;-78
2023/10/14 12:34:44;;;;;;;4.08;2.50;;;;;;;20.45;61.43;100152.41;2297878;76;22301;-76
2023/10/14 12:37:46;;;;;;;3.42;1.85;;;;;;;20.47;61.40;100153.53;2275622;77;50150;-77
2023/10/14 12:40:51;;;;;;;4.15;2.10;;;;;;;20.47;61.45;100154.05;2296997;77;50303;-76
2023/10/14 12:44:00;;;;;;;5.20;2.17;;;;;;;20.47;61.46;100159.42;2301329;76;52600;-75
2023/10/14 12:46:57;;;;;;;3.40;2.12;;;;;;;20.45;61.48;100167.72;2299482;76;21958;-77
2023/10/14 12:50:02;;;;;;;3.70;2.17;;;;;;;20.45;61.48;100164.50;2298505;76;51393;-75
2023/10/14 12:53:05;;;;;;;3.85;2.17;;;;;;;20.45;61.50;100166.37;2277068;77;22213;-76
2023/10/14 12:56:09;;;;;;;3.77;1.77;;;;;;;20.44;61.48;100174.11;2252322;77;22931;-76
2023/10/14 12:59:14;;;;;;;4.37;2.10;;;;;;;20.44;61.50;100173.58;2276914;77;21949;-75
2023/10/14 13:02:17;;;;;;;4.37;2.20;;;;;;;20.46;61.46;100176.08;2261291;77;51419;-75
2023/10/14 13:05:20;;;;;;;3.65;2.27;;;;;;;20.46;61.42;100168.02;2248578;76;50660;-76
2023/10/14 13:08:22;;;;;;;2.95;1.90;;;;;;;20.46;61.44;100169.36;2242315;77;52538;-75
2023/10/14 13:11:24;;;;;;;3.30;1.70;;;;;;;20.48;61.45;100173.20;2306281;76;50689;-77
2023/10/14 13:14:27;;;;;;;3.05;2.10;;;;;;;20.47;61.43;100171.00;2275683;77;50303;-76
2023/10/14 13:17:32;;;;;;;4.70;2.00;;;;;;;20.48;61.42;100174.02;2275967;76;50657;-76
2023/10/14 13:20:35;;;;;;;2.92;2.00;;;;;;;20.49;61.37;100171.63;2306835;76;22180;-76
2023/10/14 13:23:37;;;;;;;4.37;1.98;;;;;;;20.49;61.38;100193.65;2250552;76;52522;-77
2023/10/14 13:26:39;;;;;;;2.92;1.85;;;;;;;20.49;61.39;100174.31;2267022;77;51414;-77
2023/10/14 13:29:42;;;;;;;3.27;1.92;;;;;;;20.48;61.38;100182.08;2275819;77;50720;-75
2023/10/14 13:32:44;;;;;;;3.77;1.95;;;;;;;20.48;61.42;100182.08;2257892;77;52548;-73
2023/10/14 13:35:46;;;;;;;4.90;2.25;;;;;;;20.49;61.36;100187.75;2297202;76;51553;-75
2023/10/14 13:38:48;;;;;;;3.42;2.08;;;;;;;20.48;61.37;100194.17;2297176;76;50670;-74
2023/10/14 13:41:51;;;;;;;4.42;2.47;;;;;;;20.48;61.41;100195.52;2297071;77;50608;-74
2023/10/14 13:44:53;;;;;;;3.85;2.42;;;;;;;20.48;61.44;100193.34;2296836;77;51549;-74
2023/10/14 13:47:56;;;;;;;4.20;1.70;;;;;;;20.47;61.42;100204.59;2301526;75;51621;-74
2023/10/14 13:50:58;;;;;;;6.53;2.22;;;;;;;20.47;61.42;100191.67;2297410;76;50624;-76
2023/10/14 13:54:00;;;;;;;2.47;2.00;;;;;;;20.46;61.42;100192.20;2259483;77;50292;-76
2023/10/14 13:57:03;;;;;;;4.37;2.33;;;;;;;20.46;61.40;100200.27;2235191;77;51711;-76
2023/10/14 14:00:07;;;;;;;3.12;1.90;;;;;;;20.47;61.35;100201.08;2259648;77;50453;-76
2023/10/14 14:03:11;;;;;;;4.40;2.17;;;;;;;20.46;61.40;100202.95;2257772;76;50235;-76
2023/10/14 14:06:13;;;;;;;2.92;1.82;;;;;;;20.47;61.36;100191.67;2279282;77;50362;-76
2023/10/14 14:09:21;;;;;;;2.72;1.80;;;;;;;20.47;61.34;100198.39;2264355;76;50589;-76
2023/10/14 14:12:19;;;;;;;3.65;2.08;;;;;;;20.48;61.29;100201.41;2302432;76;21954;-76
2023/10/14 14:15:27;;;;;;;3.62;1.82;;;;;;;20.47;61.34;100204.59;2262036;76;50241;-75
2023/10/14 14:18:29;;;;;;;3.47;2.00;;;;;;;20.47;61.32;100203.25;2263183;77;22244;-74
2023/10/14 14:21:32;;;;;;;3.15;2.00;;;;;;;20.46;61.33;100205.64;2240703;76;50027;-74
2023/10/14 14:24:35;;;;;;;4.62;2.00;;;;;;;20.46;61.34;100205.64;2279203;77;51208;-76
2023/10/14 14:27:37;;;;;;;3.47;2.20;;;;;;;20.47;61.29;100202.42;2258060;77;51334;-76
2023/10/14 14:30:39;;;;;;;3.42;2.15;;;;;;;20.47;61.26;100205.94;2278046;76;50298;-76
2023/10/14 14:33:46;;;;;;;4.47;1.90;;;;;;;20.45;61.32;100223.63;2258689;77;50631;-73
2023/10/14 14:36:48;;;;;;;3.60;2.15;;;;;;;20.44;61.34;100212.55;2303704;76;50266;-76